This is the latest recevied weather packets stored in our database for station/object TAPIOLA. If no packets are shown the sender has not sent any weather packets the latest 10 day(s).
| Time | Temp. | Humidity | Pressure | Rain* | Wind** | Luminosity | Snow |
|---|---|---|---|---|---|---|---|
| 1777166791 | 0.56° C | 68% | 996 hPa | 0 mm | - | - | - |
| 1777165591 | 0.56° C | 69% | 995.7 hPa | 0 mm | - | - | - |
| 1777164391 | 0.56° C | 71% | 995.5 hPa | 0 mm | - | - | - |
| 1777163191 | 0.56° C | 73% | 995.3 hPa | 0 mm | - | - | - |
| 1777161991 | 0.56° C | 76% | 995.1 hPa | 0 mm | - | - | - |
| 1777160791 | 0.56° C | 79% | 994.9 hPa | 0 mm | - | - | - |
| 1777159591 | 0.56° C | 81% | 994.7 hPa | 0 mm | - | - | - |
| 1777158391 | 0.56° C | 86% | 994.6 hPa | 0 mm | - | - | - |
| 1777157191 | 0.56° C | 86% | 994.4 hPa | 0 mm | - | - | - |
| 1777155991 | 0.56° C | 84% | 994.2 hPa | 0 mm | - | - | - |
| 1777154791 | 1.11° C | 82% | 994 hPa | 0 mm | - | - | - |
| 1777153590 | 1.11° C | 83% | 993.7 hPa | 0 mm | - | - | - |
| 1777152390 | 1.11° C | 86% | 993.5 hPa | 0 mm | - | - | - |
| 1777151190 | 1.11° C | 85% | 993.3 hPa | 0 mm | - | - | - |
| 1777149990 | 1.67° C | 80% | 993.1 hPa | 0 mm | - | - | - |
| 1777148790 | 1.67° C | 78% | 992.8 hPa | 0 mm | - | - | - |
| 1777147590 | 1.67° C | 81% | 992.6 hPa | 0 mm | - | - | - |
| 1777146390 | 1.67° C | 84% | 992.4 hPa | 0 mm | - | - | - |
| 1777145190 | 1.67° C | 88% | 992.1 hPa | 0 mm | - | - | - |
| 1777143990 | 1.67° C | 88% | 991.8 hPa | 0 mm | - | - | - |
| 1777142789 | 1.67° C | 90% | 991.5 hPa | 0 mm | - | - | - |
| 1777141590 | 2.22° C | 85% | 991.2 hPa | 0 mm | - | - | - |
| 1777140389 | 2.22° C | 81% | 991 hPa | 0 mm | - | - | - |
| 1777139189 | 3.33° C | 74% | 990.6 hPa | 0 mm | - | - | - |
| 1777137990 | 3.89° C | 67% | 990.4 hPa | 0 mm | - | - | - |
* Rain latest hour (hover to see other rain measurements)
** Current wind speed in m/s (hover to see current wind gust speed)